Time;durP1;ratioP1;P1;durP2;ratioP2;P2;SDS_P1;SDS_P2;PMS_P1;PMS_P2;Temp;Humidity;BMP_temperature;BMP_pressure;BME280_temperature;BME280_humidity;BME280_pressure;Samples;Min_cycle;Max_cycle;Signal;HPM_P1;HPM_P2
2022/01/29 00:00:15;;;;;;;25.42;7.43;;;7.80;97.30;;;;;;5158082;27;36331;-57
2022/01/29 00:02:43;;;;;;;20.63;7.25;;;7.80;97.50;;;;;;5157676;27;38819;-57
2022/01/29 00:05:10;;;;;;;14.13;6.93;;;7.90;97.40;;;;;;5157539;27;38318;-57
2022/01/29 00:07:41;;;;;;;21.13;7.45;;;7.80;97.50;;;;;;5156967;27;36700;-58
2022/01/29 00:10:10;;;;;;;21.38;7.10;;;7.80;97.50;;;;;;5156762;27;37503;-58
2022/01/29 00:12:39;;;;;;;18.70;6.47;;;7.90;97.50;;;;;;5156466;27;36481;-58
2022/01/29 00:15:07;;;;;;;22.73;8.02;;;7.90;97.50;;;;;;5156358;27;37175;-58
2022/01/29 00:17:35;;;;;;;20.73;7.65;;;7.90;97.60;;;;;;5156673;27;36330;-58
2022/01/29 00:20:02;;;;;;;23.65;8.20;;;7.90;97.60;;;;;;5156408;27;36298;-58
2022/01/29 00:22:30;;;;;;;21.73;8.38;;;7.90;97.60;;;;;;5156531;27;39296;-58
2022/01/29 00:24:58;;;;;;;23.38;7.72;;;8.00;97.80;;;;;;5156109;27;38305;-58
2022/01/29 00:27:28;;;;;;;25.80;7.68;;;8.00;97.90;;;;;;5157032;27;36406;-58
2022/01/29 00:29:58;;;;;;;24.67;7.40;;;7.90;98.00;;;;;;5156131;27;37985;-58
2022/01/29 00:32:27;;;;;;;20.95;8.15;;;7.90;98.20;;;;;;5155657;27;37478;-58
2022/01/29 00:34:54;;;;;;;22.38;8.65;;;7.90;98.30;;;;;;5156405;27;37361;-58
2022/01/29 00:37:22;;;;;;;17.88;8.30;;;7.90;98.70;;;;;;5157359;27;35217;-58
2022/01/29 00:39:49;;;;;;;24.30;8.52;;;7.90;98.50;;;;;;5157256;27;37728;-58
2022/01/29 00:42:16;;;;;;;17.02;8.48;;;7.90;98.70;;;;;;5160464;27;37549;-58
2022/01/29 00:44:44;;;;;;;19.42;7.95;;;7.90;98.80;;;;;;5159845;27;38113;-58
2022/01/29 00:47:13;;;;;;;21.77;8.98;;;7.90;98.80;;;;;;5159303;27;37789;-58
2022/01/29 00:49:40;;;;;;;17.10;8.50;;;7.90;98.80;;;;;;5160200;27;38085;-58
2022/01/29 00:52:07;;;;;;;20.75;8.65;;;7.90;98.90;;;;;;5159510;27;38012;-58
2022/01/29 00:54:35;;;;;;;22.52;9.07;;;7.90;99.10;;;;;;5160527;27;37441;-58
2022/01/29 00:57:03;;;;;;;21.60;9.40;;;7.90;99.10;;;;;;5159688;27;36506;-58
2022/01/29 00:59:31;;;;;;;25.65;8.85;;;7.90;99.00;;;;;;5159725;27;39939;-59
2022/01/29 01:01:58;;;;;;;21.02;8.35;;;7.90;99.10;;;;;;5159331;27;37533;-58
2022/01/29 01:04:27;;;;;;;22.88;9.35;;;7.90;99.40;;;;;;5158725;27;36241;-58
2022/01/29 01:06:54;;;;;;;23.42;9.70;;;7.90;99.30;;;;;;5160781;27;37126;-58
2022/01/29 01:09:22;;;;;;;23.23;8.88;;;8.00;99.20;;;;;;5161662;27;41975;-58
2022/01/29 01:11:49;;;;;;;28.23;9.55;;;7.90;99.20;;;;;;5159971;27;38118;-58
2022/01/29 01:14:16;;;;;;;28.27;9.57;;;7.90;99.20;;;;;;5158459;27;35897;-58
2022/01/29 01:16:44;;;;;;;24.60;9.32;;;8.00;99.00;;;;;;5158566;27;36395;-58
2022/01/29 01:19:11;;;;;;;23.08;8.85;;;8.00;99.30;;;;;;5158963;27;36457;-58
2022/01/29 01:21:40;;;;;;;24.90;9.55;;;8.00;99.30;;;;;;5159524;27;37614;-58
2022/01/29 01:24:07;;;;;;;27.45;10.48;;;8.00;99.20;;;;;;5158947;27;36839;-58
2022/01/29 01:26:35;;;;;;;23.45;9.30;;;8.00;99.10;;;;;;5160644;27;36420;-58
2022/01/29 01:29:02;;;;;;;24.48;10.20;;;8.00;99.40;;;;;;5159683;27;36219;-57
2022/01/29 01:31:29;;;;;;;24.90;10.18;;;8.00;99.30;;;;;;5157739;27;36974;-58
2022/01/29 01:33:57;;;;;;;32.10;11.27;;;8.00;99.40;;;;;;5158497;27;37758;-58
2022/01/29 01:36:26;;;;;;;31.27;9.93;;;8.10;99.30;;;;;;5158837;27;38625;-58
2022/01/29 01:39:01;;;;;;;26.45;9.77;;;8.00;99.20;;;;;;5159658;27;36271;-58
2022/01/29 01:41:35;;;;;;;24.40;10.23;;;8.10;99.20;;;;;;5161042;27;38310;-58
2022/01/29 01:44:03;;;;;;;29.42;10.45;;;8.10;99.30;;;;;;5158641;27;38760;-58
2022/01/29 01:46:31;;;;;;;25.10;10.60;;;8.10;99.40;;;;;;5159314;27;35635;-58
2022/01/29 01:48:59;;;;;;;26.45;11.00;;;8.10;99.40;;;;;;5159534;27;39777;-59
2022/01/29 01:51:26;;;;;;;29.63;10.60;;;8.10;99.50;;;;;;5157849;27;37700;-58
2022/01/29 01:53:55;;;;;;;29.90;11.65;;;8.10;99.50;;;;;;5160363;27;37936;-58
2022/01/29 01:56:22;;;;;;;26.60;11.43;;;8.10;99.60;;;;;;5158209;27;38164;-58
2022/01/29 01:58:49;;;;;;;26.08;10.57;;;8.10;99.50;;;;;;5158793;27;39101;-62
2022/01/29 02:01:17;;;;;;;28.00;11.68;;;8.10;99.50;;;;;;5157761;27;37655;-58
2022/01/29 02:03:46;;;;;;;22.83;10.30;;;8.20;99.60;;;;;;5157478;27;36351;-58
2022/01/29 02:06:14;;;;;;;20.98;9.55;;;8.20;99.50;;;;;;5157692;27;38703;-58
2022/01/29 02:08:41;;;;;;;26.00;9.68;;;8.20;99.60;;;;;;5157125;27;37661;-58
2022/01/29 02:11:10;;;;;;;21.83;9.93;;;8.20;99.60;;;;;;5157917;27;38604;-58
2022/01/29 02:13:38;;;;;;;36.25;9.88;;;8.20;99.60;;;;;;5159247;27;36261;-58
2022/01/29 02:16:06;;;;;;;29.10;10.57;;;8.20;99.70;;;;;;5159084;27;37345;-58
2022/01/29 02:18:34;;;;;;;23.60;9.20;;;8.30;99.70;;;;;;5158499;27;38383;-58
2022/01/29 02:21:03;;;;;;;25.55;10.10;;;8.20;99.70;;;;;;5159697;27;37723;-58
2022/01/29 02:23:31;;;;;;;26.17;9.65;;;8.30;99.70;;;;;;5158156;27;37186;-58
2022/01/29 02:25:59;;;;;;;24.42;9.50;;;8.30;99.70;;;;;;5157456;27;36681;-58
2022/01/29 02:28:26;;;;;;;24.80;9.95;;;8.40;99.70;;;;;;5157998;27;38772;-58
2022/01/29 02:31:00;;;;;;;22.77;8.80;;;8.30;99.70;;;;;;5157729;27;36619;-58
2022/01/29 02:33:28;;;;;;;;;;;8.40;99.70;;;;;;5158667;27;37572;-58
2022/01/29 02:35:56;;;;;;;22.58;8.85;;;8.30;99.90;;;;;;5158273;27;37277;-58
2022/01/29 02:38:24;;;;;;;19.65;8.13;;;8.30;99.70;;;;;;5157758;27;37852;-58
2022/01/29 02:40:57;;;;;;;28.85;10.10;;;8.40;99.70;;;;;;5157667;27;39703;-58
2022/01/29 02:43:27;;;;;;;28.75;9.57;;;8.40;99.80;;;;;;5159789;27;37877;-58
2022/01/29 02:45:55;;;;;;;23.20;9.13;;;8.40;99.70;;;;;;5158803;27;35673;-58
2022/01/29 02:48:24;;;;;;;23.75;8.60;;;8.40;99.70;;;;;;5158052;27;37900;-58
2022/01/29 02:50:52;;;;;;;31.02;9.20;;;8.40;99.60;;;;;;5157995;27;36400;-58
2022/01/29 02:53:19;;;;;;;23.40;8.85;;;8.40;99.60;;;;;;5159082;27;35372;-58
2022/01/29 02:55:46;;;;;;;22.40;9.55;;;8.50;99.70;;;;;;5157820;27;36393;-58
2022/01/29 02:58:15;;;;;;;24.02;9.75;;;8.50;99.80;;;;;;5158454;27;37279;-58
2022/01/29 03:00:42;;;;;;;21.88;9.30;;;8.50;99.70;;;;;;5159598;27;39113;-58
2022/01/29 03:03:10;;;;;;;26.45;11.00;;;8.50;99.80;;;;;;5156395;27;38337;-57
2022/01/29 03:05:37;;;;;;;23.23;10.35;;;8.50;99.90;;;;;;5158137;27;36559;-58
2022/01/29 03:08:05;;;;;;;22.45;9.95;;;8.50;99.70;;;;;;5158492;27;36335;-58
2022/01/29 03:10:32;;;;;;;29.58;10.23;;;8.50;99.70;;;;;;5158562;27;39203;-58
2022/01/29 03:13:00;;;;;;;25.33;10.38;;;8.50;99.80;;;;;;5159216;27;37569;-58
2022/01/29 03:15:28;;;;;;;23.20;10.05;;;8.50;99.90;;;;;;5156744;27;37333;-58
2022/01/29 03:17:56;;;;;;;25.23;9.20;;;8.50;99.90;;;;;;5158337;27;39152;-58
2022/01/29 03:20:23;;;;;;;25.00;10.07;;;8.60;99.90;;;;;;5158269;27;37632;-58
2022/01/29 03:22:51;;;;;;;24.13;10.55;;;8.50;99.80;;;;;;5158703;27;37693;-58
2022/01/29 03:25:18;;;;;;;24.85;10.77;;;8.50;99.90;;;;;;5158060;27;36629;-58
2022/01/29 03:27:45;;;;;;;23.80;10.77;;;8.60;99.90;;;;;;5158576;27;37139;-58
2022/01/29 03:30:13;;;;;;;26.33;12.07;;;8.60;99.90;;;;;;5156222;27;38793;-58
2022/01/29 03:32:42;;;;;;;22.42;10.02;;;8.60;99.80;;;;;;5158059;27;38959;-57
2022/01/29 03:35:10;;;;;;;25.17;9.60;;;8.60;99.80;;;;;;5158057;27;37221;-58
2022/01/29 03:37:38;;;;;;;23.08;10.48;;;8.60;99.70;;;;;;5158173;27;37753;-58
2022/01/29 03:40:08;;;;;;;20.23;9.90;;;8.60;99.80;;;;;;5157475;27;38654;-58
2022/01/29 03:42:41;;;;;;;28.55;10.82;;;8.60;99.70;;;;;;5157457;27;37254;-58
2022/01/29 03:45:10;;;;;;;24.10;10.88;;;8.60;99.70;;;;;;5156904;27;37364;-58
2022/01/29 03:47:37;;;;;;;23.73;10.40;;;8.60;99.80;;;;;;5157114;27;37441;-58
2022/01/29 03:50:07;;;;;;;22.67;10.68;;;8.70;99.70;;;;;;5155089;27;37696;-58
2022/01/29 03:52:34;;;;;;;21.27;10.68;;;8.70;99.60;;;;;;5157157;27;37212;-58
2022/01/29 03:55:02;;;;;;;21.10;10.40;;;8.60;99.60;;;;;;5156624;27;36369;-58
2022/01/29 03:57:29;;;;;;;27.33;11.35;;;8.70;99.70;;;;;;5155871;27;38561;-58
2022/01/29 03:59:56;;;;;;;30.90;10.55;;;8.70;99.70;;;;;;5157492;27;37869;-58
2022/01/29 04:02:24;;;;;;;20.05;10.50;;;8.70;99.70;;;;;;5156696;27;37596;-57
2022/01/29 04:04:51;;;;;;;27.60;10.57;;;8.70;99.60;;;;;;5155844;27;37582;-57
2022/01/29 04:07:20;;;;;;;25.55;9.80;;;8.70;99.80;;;;;;5157883;27;37328;-58
2022/01/29 04:09:49;;;;;;;21.60;10.48;;;8.70;99.80;;;;;;5156050;27;36713;-58
2022/01/29 04:12:18;;;;;;;19.95;9.30;;;8.70;99.80;;;;;;5156481;27;38570;-58
2022/01/29 04:14:45;;;;;;;27.83;10.85;;;8.70;99.80;;;;;;5156289;27;36988;-58
2022/01/29 04:17:13;;;;;;;26.25;11.55;;;8.70;99.90;;;;;;5160214;27;36445;-58
2022/01/29 04:19:41;;;;;;;27.45;11.55;;;8.70;99.80;;;;;;5160981;27;38593;-58
2022/01/29 04:22:08;;;;;;;27.88;12.13;;;8.70;99.80;;;;;;5160359;27;37504;-58
2022/01/29 04:24:37;;;;;;;27.85;11.52;;;8.70;99.80;;;;;;5159471;27;37659;-58
2022/01/29 04:27:14;;;;;;;22.92;11.48;;;8.80;99.80;;;;;;5159959;27;38148;-58
2022/01/29 04:29:53;;;;;;;23.85;11.23;;;8.80;99.80;;;;;;5159876;27;37702;-58
2022/01/29 04:32:27;;;;;;;22.08;10.18;;;8.80;99.70;;;;;;5159328;27;37577;-58
2022/01/29 04:34:54;;;;;;;26.75;11.45;;;8.80;99.80;;;;;;5160171;27;36619;-58
2022/01/29 04:37:22;;;;;;;22.90;11.68;;;8.80;99.90;;;;;;5161475;27;38694;-58
2022/01/29 04:39:50;;;;;;;25.73;11.02;;;8.80;99.80;;;;;;5160761;27;37106;-57
2022/01/29 04:42:18;;;;;;;25.38;11.05;;;8.80;99.80;;;;;;5160008;27;37815;-58
2022/01/29 04:44:45;;;;;;;18.27;10.73;;;8.80;99.80;;;;;;5160485;27;36141;-58
2022/01/29 04:47:12;;;;;;;20.52;9.88;;;8.90;99.80;;;;;;5159498;27;37920;-58
2022/01/29 04:49:40;;;;;;;25.30;10.48;;;8.90;99.80;;;;;;5160068;27;37923;-58
2022/01/29 04:52:07;;;;;;;23.80;12.18;;;8.80;99.70;;;;;;5160409;27;37349;-58
2022/01/29 04:54:35;;;;;;;25.55;11.48;;;8.90;99.80;;;;;;5159876;27;35606;-58
2022/01/29 04:57:04;;;;;;;22.83;11.98;;;8.90;99.80;;;;;;5159451;27;38378;-58
2022/01/29 04:59:31;;;;;;;21.52;11.15;;;8.90;99.90;;;;;;5159815;27;36578;-58
2022/01/29 05:01:59;;;;;;;22.42;10.65;;;8.90;99.80;;;;;;5159509;27;37365;-58
2022/01/29 05:04:26;;;;;;;29.52;10.82;;;8.90;99.90;;;;;;5159384;27;37085;-57
2022/01/29 05:06:53;;;;;;;21.52;10.77;;;8.90;99.80;;;;;;5159396;27;37560;-58
2022/01/29 05:09:20;;;;;;;24.00;10.63;;;8.90;99.90;;;;;;5157918;27;38606;-58
2022/01/29 05:11:51;;;;;;;20.88;10.65;;;8.90;99.90;;;;;;5157643;27;36307;-58
2022/01/29 05:14:28;;;;;;;22.40;10.73;;;8.90;99.90;;;;;;5158306;27;36846;-58
2022/01/29 05:25:36;;;;;;;21.50;11.75;;;8.90;99.90;;;;;;5159016;27;38891;-58
2022/01/29 05:27:59;;;;;;;26.67;11.07;;;8.90;99.90;;;;;;5159811;27;38824;-58
2022/01/29 05:30:28;;;;;;;21.30;11.20;;;9.00;99.90;;;;;;5159941;27;37937;-58
2022/01/29 05:32:55;;;;;;;20.23;10.13;;;8.90;99.90;;;;;;5159579;27;37585;-58
2022/01/29 05:35:23;;;;;;;29.40;11.63;;;9.00;99.90;;;;;;5158271;27;35571;-58
2022/01/29 05:37:51;;;;;;;26.23;11.88;;;8.90;99.90;;;;;;5158409;27;37411;-58
2022/01/29 05:40:18;;;;;;;20.17;10.77;;;9.00;99.90;;;;;;5159594;27;37665;-58
2022/01/29 05:42:46;;;;;;;20.30;10.57;;;9.00;99.90;;;;;;5158437;27;36378;-58
2022/01/29 05:45:13;;;;;;;19.83;10.02;;;9.00;99.90;;;;;;5159908;27;37009;-58
2022/01/29 05:47:42;;;;;;;23.65;11.57;;;9.00;99.90;;;;;;5159321;27;40083;-58
2022/01/29 05:50:10;;;;;;;21.05;10.30;;;9.00;99.90;;;;;;5159406;27;38531;-58
2022/01/29 05:52:38;;;;;;;23.48;10.15;;;9.00;99.90;;;;;;5159839;27;37392;-58
2022/01/29 05:55:06;;;;;;;20.52;11.27;;;9.00;99.90;;;;;;5160181;27;36684;-58
2022/01/29 05:57:33;;;;;;;20.40;10.43;;;9.00;99.90;;;;;;5157866;27;36203;-58
2022/01/29 06:00:00;;;;;;;16.85;10.70;;;8.90;99.90;;;;;;5157567;27;39052;-58
2022/01/29 06:02:28;;;;;;;27.55;11.52;;;9.00;99.90;;;;;;5158326;27;38193;-58
2022/01/29 06:04:57;;;;;;;25.23;10.50;;;9.10;99.90;;;;;;5158531;27;36244;-58
2022/01/29 06:07:24;;;;;;;26.10;11.05;;;9.10;99.90;;;;;;5158751;27;37335;-58
2022/01/29 06:09:51;;;;;;;21.92;10.18;;;9.10;99.90;;;;;;5157202;27;37649;-58
2022/01/29 06:12:18;;;;;;;21.35;10.35;;;9.10;99.90;;;;;;5160231;27;37267;-58
2022/01/29 06:14:46;;;;;;;25.92;11.68;;;9.10;99.90;;;;;;5158456;27;36362;-58
2022/01/29 06:17:13;;;;;;;22.17;10.68;;;9.10;99.90;;;;;;5158435;27;37015;-57
2022/01/29 06:19:41;;;;;;;18.85;10.63;;;9.10;99.90;;;;;;5160742;27;36552;-58
2022/01/29 06:22:13;;;;;;;18.92;10.43;;;9.10;99.90;;;;;;5159546;27;38705;-58
2022/01/29 06:24:41;;;;;;;22.02;10.65;;;9.10;99.90;;;;;;5159987;27;36869;-58
2022/01/29 06:27:08;;;;;;;21.98;10.35;;;9.10;99.90;;;;;;5159498;27;37757;-58
2022/01/29 06:29:36;;;;;;;22.33;10.70;;;9.10;99.90;;;;;;5159243;27;37996;-58
2022/01/29 06:32:04;;;;;;;18.98;9.85;;;9.10;99.90;;;;;;5158683;27;37342;-58
2022/01/29 06:34:31;;;;;;;21.35;10.18;;;9.20;99.90;;;;;;5157493;27;36961;-58
2022/01/29 06:36:59;;;;;;;18.88;9.63;;;9.10;99.90;;;;;;5157882;27;39010;-58
2022/01/29 06:39:27;;;;;;;20.40;9.85;;;9.10;99.90;;;;;;5157073;27;37635;-58
2022/01/29 06:41:55;;;;;;;23.08;11.63;;;9.20;99.90;;;;;;5157704;27;38133;-58
2022/01/29 06:44:22;;;;;;;17.83;9.70;;;9.10;99.90;;;;;;5160508;27;36279;-58
2022/01/29 06:46:49;;;;;;;19.05;9.80;;;9.20;99.90;;;;;;5158649;27;38325;-57
2022/01/29 06:49:16;;;;;;;19.08;9.52;;;9.20;99.90;;;;;;5158084;27;38240;-58
2022/01/29 06:51:44;;;;;;;20.00;10.48;;;9.20;99.90;;;;;;5159319;27;37562;-58
2022/01/29 06:54:11;;;;;;;17.75;9.95;;;9.20;99.90;;;;;;5158504;27;36903;-58
2022/01/29 06:56:40;;;;;;;19.83;10.00;;;9.20;99.90;;;;;;5157895;27;37366;-58
2022/01/29 06:59:07;;;;;;;18.92;9.57;;;9.20;99.90;;;;;;5159073;27;36517;-58
2022/01/29 07:01:34;;;;;;;23.70;9.80;;;9.10;99.90;;;;;;5157963;27;38677;-58
2022/01/29 07:04:01;;;;;;;19.73;9.23;;;9.20;99.90;;;;;;5158573;27;36470;-58
2022/01/29 07:06:29;;;;;;;17.67;9.73;;;9.20;99.90;;;;;;5159409;27;37032;-58
2022/01/29 07:08:57;;;;;;;20.00;9.90;;;9.10;99.90;;;;;;5158339;27;37665;-58
2022/01/29 07:11:25;;;;;;;19.02;10.30;;;9.20;99.90;;;;;;5158429;27;38215;-58
2022/01/29 07:14:01;;;;;;;20.58;10.30;;;9.10;99.90;;;;;;5157486;27;35444;-57
2022/01/29 07:16:29;;;;;;;22.15;10.20;;;9.20;99.90;;;;;;5157814;27;37534;-58
2022/01/29 07:18:57;;;;;;;19.00;9.32;;;9.10;99.90;;;;;;5157529;27;37677;-58
2022/01/29 07:21:24;;;;;;;23.33;10.32;;;9.10;99.90;;;;;;5156039;27;37480;-58
2022/01/29 07:23:51;;;;;;;24.67;9.65;;;9.20;99.90;;;;;;5157101;27;36036;-58
2022/01/29 07:26:19;;;;;;;20.90;9.40;;;9.10;99.90;;;;;;5157979;27;38480;-57
2022/01/29 07:28:46;;;;;;;15.45;8.98;;;9.20;99.90;;;;;;5157837;27;36598;-58
2022/01/29 07:31:15;;;;;;;17.08;8.95;;;9.20;99.90;;;;;;5156360;27;37521;-58
2022/01/29 07:33:42;;;;;;;19.27;9.18;;;9.20;99.90;;;;;;5157600;27;36020;-57
2022/01/29 07:36:09;;;;;;;18.00;8.88;;;9.10;99.90;;;;;;5157508;27;38867;-58
2022/01/29 07:38:37;;;;;;;17.83;8.63;;;9.20;99.90;;;;;;5158000;27;36486;-58
2022/01/29 07:41:04;;;;;;;17.85;9.50;;;9.20;99.90;;;;;;5157627;27;37394;-58
2022/01/29 07:43:31;;;;;;;16.45;8.35;;;9.20;99.90;;;;;;5157884;27;37855;-58
2022/01/29 07:45:59;;;;;;;19.90;8.75;;;9.20;99.90;;;;;;5157075;27;37402;-58
2022/01/29 07:48:27;;;;;;;15.60;8.02;;;9.20;99.90;;;;;;5157897;27;37507;-58
2022/01/29 07:50:55;;;;;;;14.98;9.13;;;9.20;99.90;;;;;;5156743;27;37581;-58
2022/01/29 07:53:22;;;;;;;18.55;8.48;;;9.20;99.90;;;;;;5157206;27;36442;-58
2022/01/29 07:55:49;;;;;;;19.77;8.82;;;9.20;99.90;;;;;;5156910;27;38259;-58
2022/01/29 07:58:17;;;;;;;19.55;9.60;;;9.20;99.90;;;;;;5159337;27;37696;-58
2022/01/29 08:00:44;;;;;;;14.02;7.95;;;9.20;99.90;;;;;;5157433;27;36130;-58
2022/01/29 08:03:11;;;;;;;17.20;8.00;;;9.20;99.90;;;;;;5157026;27;36656;-58
2022/01/29 08:05:40;;;;;;;20.45;7.70;;;9.20;99.90;;;;;;5157679;27;37709;-58
2022/01/29 08:08:07;;;;;;;14.35;7.55;;;9.20;99.90;;;;;;5156309;27;38553;-58
2022/01/29 08:10:35;;;;;;;19.55;7.05;;;9.30;99.90;;;;;;5158095;27;36340;-58
2022/01/29 08:13:02;;;;;;;15.20;7.40;;;9.30;99.90;;;;;;5157146;27;38340;-58
2022/01/29 08:15:30;;;;;;;18.83;7.50;;;9.30;99.90;;;;;;5157544;27;37751;-58
2022/01/29 08:17:58;;;;;;;14.70;6.80;;;9.30;99.90;;;;;;5156817;27;36614;-58
2022/01/29 08:20:25;;;;;;;18.42;7.47;;;9.30;99.90;;;;;;5157144;27;39713;-58
2022/01/29 08:22:54;;;;;;;14.45;6.82;;;9.30;99.90;;;;;;5157362;27;37120;-58
2022/01/29 08:25:21;;;;;;;15.15;5.88;;;9.40;99.90;;;;;;5156312;27;37436;-58
2022/01/29 08:27:48;;;;;;;15.48;7.07;;;9.40;99.90;;;;;;5156353;27;36428;-58
2022/01/29 08:30:16;;;;;;;19.83;7.03;;;9.40;99.90;;;;;;5158337;27;37491;-58
2022/01/29 08:32:43;;;;;;;17.30;7.40;;;9.40;99.90;;;;;;5156485;27;37673;-58
2022/01/29 08:35:13;;;;;;;11.65;6.35;;;9.40;99.90;;;;;;5156402;27;39031;-58
2022/01/29 08:37:40;;;;;;;17.83;7.30;;;9.50;99.90;;;;;;5157097;27;37883;-58
2022/01/29 08:40:12;;;;;;;15.43;6.47;;;9.40;99.90;;;;;;5155252;27;36365;-58
2022/01/29 08:42:40;;;;;;;14.30;6.00;;;9.50;99.90;;;;;;5154860;27;36252;-58
2022/01/29 08:45:09;;;;;;;13.45;5.55;;;9.50;99.90;;;;;;5151773;27;36307;-59
2022/01/29 08:47:36;;;;;;;12.02;5.32;;;9.50;99.90;;;;;;5154390;27;38732;-58
2022/01/29 08:50:04;;;;;;;12.55;5.22;;;9.60;99.90;;;;;;5153378;27;39959;-58
2022/01/29 08:52:32;;;;;;;15.10;5.22;;;9.60;99.70;;;;;;5156793;27;36846;-58
2022/01/29 08:54:59;;;;;;;11.57;5.30;;;9.60;99.70;;;;;;5155595;27;37490;-58
2022/01/29 08:57:28;;;;;;;13.27;4.65;;;9.70;99.60;;;;;;5154588;27;37925;-58
2022/01/29 08:59:56;;;;;;;12.70;4.80;;;9.70;99.50;;;;;;5155931;27;36152;-58
2022/01/29 09:02:24;;;;;;;15.68;4.53;;;9.70;99.40;;;;;;5157275;27;36443;-58
2022/01/29 09:04:53;;;;;;;12.77;5.15;;;9.80;99.30;;;;;;5158790;27;38885;-58
2022/01/29 09:07:20;;;;;;;15.52;4.97;;;9.80;99.20;;;;;;5158450;27;36706;-59
2022/01/29 09:09:48;;;;;;;15.10;5.10;;;9.80;99.10;;;;;;5159479;27;38968;-58
2022/01/29 09:12:15;;;;;;;12.82;4.43;;;9.80;99.10;;;;;;5158172;27;36458;-58
2022/01/29 09:14:44;;;;;;;9.13;4.30;;;9.80;99.00;;;;;;5158569;27;37114;-58
2022/01/29 09:17:11;;;;;;;9.43;4.15;;;9.80;99.00;;;;;;5159574;27;36926;-58
2022/01/29 09:19:39;;;;;;;10.40;4.30;;;9.80;99.00;;;;;;5158519;27;38276;-58
2022/01/29 09:22:07;;;;;;;11.32;3.58;;;9.80;99.00;;;;;;5158273;27;36657;-58
2022/01/29 09:24:34;;;;;;;15.93;5.78;;;9.80;99.00;;;;;;5157561;27;36429;-58
2022/01/29 09:27:01;;;;;;;8.75;3.45;;;9.80;99.00;;;;;;5157392;27;37544;-58
2022/01/29 09:29:28;;;;;;;10.00;3.90;;;9.90;99.00;;;;;;5157917;27;38787;-58
2022/01/29 09:31:57;;;;;;;13.38;4.35;;;9.90;98.90;;;;;;5157871;27;36611;-58
2022/01/29 09:34:25;;;;;;;10.82;3.63;;;9.90;98.90;;;;;;5157686;27;37781;-58
2022/01/29 09:36:52;;;;;;;10.15;3.33;;;10.00;98.90;;;;;;5156883;27;38099;-58
2022/01/29 09:39:20;;;;;;;8.30;3.38;;;10.00;98.80;;;;;;5157447;27;37891;-58
2022/01/29 09:41:47;;;;;;;10.85;3.25;;;10.00;98.80;;;;;;5157356;27;35328;-58
2022/01/29 09:44:14;;;;;;;10.32;3.47;;;10.00;98.70;;;;;;5158188;27;35994;-58
2022/01/29 09:46:44;;;;;;;12.30;3.78;;;10.00;98.70;;;;;;5158012;27;37768;-58
2022/01/29 09:49:13;;;;;;;9.23;3.33;;;10.10;98.70;;;;;;5158182;27;40520;-58
2022/01/29 09:51:42;;;;;;;10.32;4.57;;;10.10;98.60;;;;;;5158287;27;35450;-58
2022/01/29 09:54:09;;;;;;;12.07;3.63;;;10.10;98.50;;;;;;5157547;27;38410;-58
2022/01/29 09:56:37;;;;;;;6.47;2.92;;;10.10;98.40;;;;;;5157777;27;37586;-58
2022/01/29 09:59:04;;;;;;;11.60;3.25;;;10.20;98.40;;;;;;5157787;27;37880;-58
2022/01/29 10:01:32;;;;;;;9.50;2.85;;;10.20;98.40;;;;;;5158496;27;40031;-58
2022/01/29 10:04:00;;;;;;;9.27;3.10;;;10.20;98.30;;;;;;5156502;27;37449;-58
2022/01/29 10:06:29;;;;;;;12.77;3.30;;;10.20;98.30;;;;;;5157313;27;38334;-58
2022/01/29 10:08:57;;;;;;;10.23;3.10;;;10.30;98.20;;;;;;5156577;27;38130;-58
2022/01/29 10:11:25;;;;;;;8.15;3.05;;;10.30;98.20;;;;;;5156396;27;37212;-59
2022/01/29 10:13:59;;;;;;;12.85;3.65;;;10.30;98.20;;;;;;5156192;27;37432;-58
2022/01/29 10:16:27;;;;;;;;;;;10.30;98.10;;;;;;5157976;27;37657;-58
2022/01/29 10:19:01;;;;;;;13.70;2.58;;;10.30;98.00;;;;;;5157470;27;35854;-58
2022/01/29 10:21:32;;;;;;;12.73;2.88;;;10.30;98.00;;;;;;5158420;27;38725;-58
2022/01/29 10:24:03;;;;;;;10.80;2.63;;;10.30;98.00;;;;;;5156186;27;40521;-58
2022/01/29 10:26:34;;;;;;;12.25;2.42;;;10.30;97.90;;;;;;5156246;27;38209;-58
2022/01/29 10:29:02;;;;;;;9.55;2.63;;;10.30;97.90;;;;;;5157430;27;37228;-59
2022/01/29 10:31:51;;;;;;;7.38;2.40;;;10.40;97.90;;;;;;5156953;27;37033;-58
2022/01/29 10:34:20;;;;;;;9.55;2.42;;;10.40;97.80;;;;;;5150674;27;37653;-58
2022/01/29 10:37:13;;;;;;;13.20;2.33;;;10.40;97.80;;;;;;5157161;27;37715;-58
2022/01/29 10:39:41;;;;;;;9.75;2.33;;;10.40;97.60;;;;;;5156985;27;38649;-58
2022/01/29 10:42:17;;;;;;;11.77;2.35;;;10.50;97.50;;;;;;5157458;27;35355;-58
2022/01/29 10:44:46;;;;;;;9.23;2.35;;;10.50;97.40;;;;;;5156308;27;39585;-58
2022/01/29 10:47:13;;;;;;;10.73;2.88;;;10.50;97.30;;;;;;5155790;27;37656;-58
2022/01/29 10:49:51;;;;;;;9.98;2.50;;;10.50;97.30;;;;;;5155041;27;37507;-58
2022/01/29 10:52:25;;;;;;;11.20;2.58;;;10.50;97.20;;;;;;5155892;27;35493;-58
2022/01/29 10:54:59;;;;;;;8.88;1.85;;;10.50;97.10;;;;;;5155524;27;37500;-58
2022/01/29 10:57:32;;;;;;;7.35;1.80;;;10.50;97.00;;;;;;5156718;27;38691;-58
2022/01/29 11:00:00;;;;;;;11.70;2.33;;;10.50;97.00;;;;;;5156816;27;38065;-58
2022/01/29 11:02:30;;;;;;;5.75;2.13;;;10.50;97.00;;;;;;5156827;27;36432;-58
2022/01/29 11:05:01;;;;;;;8.20;1.90;;;10.50;97.00;;;;;;5155687;27;37001;-58
2022/01/29 11:07:30;;;;;;;10.80;2.28;;;10.50;97.00;;;;;;5155908;27;37952;-58
2022/01/29 11:10:02;;;;;;;11.30;2.40;;;10.50;97.00;;;;;;5156228;27;36222;-58
2022/01/29 11:12:30;;;;;;;11.80;2.88;;;10.50;96.80;;;;;;5155843;27;36305;-58
2022/01/29 11:14:59;;;;;;;9.77;2.13;;;10.60;96.70;;;;;;5154775;27;39587;-58
2022/01/29 11:17:28;;;;;;;10.55;1.92;;;10.60;96.70;;;;;;5155556;27;37627;-58
2022/01/29 11:19:56;;;;;;;12.23;2.45;;;10.60;96.60;;;;;;5155414;27;37131;-58
2022/01/29 11:22:27;;;;;;;10.75;2.17;;;10.60;96.50;;;;;;5155037;27;38206;-58
2022/01/29 11:24:59;;;;;;;8.90;2.08;;;10.60;96.30;;;;;;5151973;27;37324;-58
2022/01/29 11:27:29;;;;;;;9.95;2.10;;;10.60;96.20;;;;;;5154907;27;37590;-58
2022/01/29 11:29:58;;;;;;;9.98;2.28;;;10.60;96.30;;;;;;5154140;27;37286;-58
2022/01/29 11:32:33;;;;;;;13.13;2.45;;;10.60;96.30;;;;;;5154546;27;37474;-58
2022/01/29 11:35:19;;;;;;;8.60;2.00;;;10.60;96.10;;;;;;5153499;27;37389;-58
2022/01/29 11:37:49;;;;;;;10.95;2.42;;;10.70;95.90;;;;;;5154244;27;38434;-58
2022/01/29 11:40:21;;;;;;;10.10;1.95;;;10.60;96.10;;;;;;5154471;27;36179;-58
2022/01/29 11:43:04;;;;;;;8.63;2.15;;;10.70;96.00;;;;;;5155672;27;36354;-58
2022/01/29 11:45:41;;;;;;;10.38;3.15;;;10.70;96.00;;;;;;5154679;27;38842;-58
2022/01/29 11:48:30;;;;;;;11.85;1.85;;;10.80;96.00;;;;;;5154313;27;38486;-58
2022/01/29 11:50:59;;;;;;;10.23;1.88;;;10.90;95.80;;;;;;5155381;27;39083;-58
2022/01/29 11:53:48;;;;;;;8.98;2.05;;;10.90;95.70;;;;;;5154223;27;36969;-58
2022/01/29 11:56:28;;;;;;;8.60;1.83;;;10.90;95.60;;;;;;5154909;27;38525;-58
2022/01/29 11:59:24;;;;;;;10.68;2.08;;;10.90;95.20;;;;;;5155193;27;37851;-58
2022/01/29 12:01:53;;;;;;;9.13;2.05;;;10.90;95.30;;;;;;5154883;27;38063;-58
2022/01/29 12:04:21;;;;;;;7.38;1.63;;;11.00;95.40;;;;;;5154764;27;36411;-58
2022/01/29 12:07:16;;;;;;;10.52;1.80;;;11.00;95.30;;;;;;5155418;27;37292;-58
2022/01/29 12:09:44;;;;;;;11.25;1.65;;;11.00;95.10;;;;;;5130418;27;36344;-58
2022/01/29 12:12:22;;;;;;;12.05;2.42;;;11.10;95.20;;;;;;5154986;27;36336;-58
2022/01/29 12:14:50;;;;;;;11.98;2.00;;;11.10;95.10;;;;;;5154492;27;39507;-59
2022/01/29 12:17:38;;;;;;;9.43;1.70;;;11.10;94.90;;;;;;5153905;27;36327;-58
2022/01/29 12:20:08;;;;;;;9.02;1.88;;;11.20;94.70;;;;;;5155272;27;38073;-58
2022/01/29 12:22:37;;;;;;;13.07;1.67;;;11.30;94.80;;;;;;5153942;27;37230;-58
2022/01/29 12:25:07;;;;;;;8.32;1.52;;;11.30;94.50;;;;;;5153800;27;37067;-58
2022/01/29 12:27:47;;;;;;;11.07;2.38;;;11.40;94.40;;;;;;5155742;27;37451;-58
2022/01/29 12:30:19;;;;;;;11.07;1.80;;;11.40;94.30;;;;;;5154703;27;38987;-58
2022/01/29 12:33:01;;;;;;;10.27;2.00;;;11.40;94.40;;;;;;5155928;27;37981;-58
2022/01/29 12:35:36;;;;;;;11.48;2.55;;;11.40;94.40;;;;;;5155546;27;36229;-59
2022/01/29 12:38:05;;;;;;;10.38;2.50;;;11.40;94.00;;;;;;5159206;27;37401;-58
2022/01/29 12:40:38;;;;;;;9.43;2.63;;;11.40;94.30;;;;;;5159368;27;37747;-58
2022/01/29 12:43:21;;;;;;;8.82;2.13;;;11.40;93.90;;;;;;5159856;27;37137;-58
2022/01/29 12:45:50;;;;;;;;;;;11.40;93.80;;;;;;5160696;27;36178;-58
2022/01/29 12:48:18;;;;;;;12.43;1.80;;;11.30;93.20;;;;;;5158558;27;37873;-58
2022/01/29 12:50:45;;;;;;;10.32;2.47;;;11.30;93.90;;;;;;5158981;27;38762;-58
2022/01/29 12:53:15;;;;;;;12.30;2.08;;;11.40;93.90;;;;;;5158755;27;37457;-59
2022/01/29 12:55:43;;;;;;;13.25;2.28;;;11.40;94.00;;;;;;5158865;27;35840;-58
2022/01/29 12:58:11;;;;;;;15.30;2.58;;;11.40;93.90;;;;;;5157674;27;39375;-58
2022/01/29 13:00:39;;;;;;;9.60;2.13;;;11.40;93.70;;;;;;5157869;27;37480;-58